sensor_id;sensor_type;location;lat;lon;timestamp;P1;durP1;ratioP1;P2;durP2;ratioP2
74074;SDS011;62428;51.412;5.432;2023-08-21T00:00:03;4.67;;;1.17;;
74074;SDS011;62428;51.412;5.432;2023-08-21T00:02:29;5.55;;;1.35;;
74074;SDS011;62428;51.412;5.432;2023-08-21T00:04:55;5.22;;;1.52;;
74074;SDS011;62428;51.412;5.432;2023-08-21T00:07:21;6.20;;;1.40;;
74074;SDS011;62428;51.412;5.432;2023-08-21T00:09:47;6.88;;;1.52;;
74074;SDS011;62428;51.412;5.432;2023-08-21T00:12:12;5.53;;;1.50;;
74074;SDS011;62428;51.412;5.432;2023-08-21T00:14:41;4.00;;;1.42;;
74074;SDS011;62428;51.412;5.432;2023-08-21T00:17:06;5.90;;;1.40;;
74074;SDS011;62428;51.412;5.432;2023-08-21T00:19:35;7.80;;;1.20;;
74074;SDS011;62428;51.412;5.432;2023-08-21T00:22:00;6.10;;;1.50;;
74074;SDS011;62428;51.412;5.432;2023-08-21T00:24:26;5.25;;;1.52;;
74074;SDS011;62428;51.412;5.432;2023-08-21T00:26:51;7.13;;;1.60;;
74074;SDS011;62428;51.412;5.432;2023-08-21T00:29:17;5.07;;;1.10;;
74074;SDS011;62428;51.412;5.432;2023-08-21T00:31:42;5.27;;;1.30;;
74074;SDS011;62428;51.412;5.432;2023-08-21T00:34:07;3.53;;;1.23;;
74074;SDS011;62428;51.412;5.432;2023-08-21T00:36:33;3.67;;;1.30;;
74074;SDS011;62428;51.412;5.432;2023-08-21T00:38:58;5.93;;;1.70;;
74074;SDS011;62428;51.412;5.432;2023-08-21T00:41:23;9.77;;;1.53;;
74074;SDS011;62428;51.412;5.432;2023-08-21T00:43:49;8.03;;;1.73;;
74074;SDS011;62428;51.412;5.432;2023-08-21T00:46:14;4.93;;;1.67;;
74074;SDS011;62428;51.412;5.432;2023-08-21T00:48:40;4.40;;;1.00;;
74074;SDS011;62428;51.412;5.432;2023-08-21T00:51:06;4.50;;;1.10;;
74074;SDS011;62428;51.412;5.432;2023-08-21T00:53:32;4.13;;;1.43;;
74074;SDS011;62428;51.412;5.432;2023-08-21T00:55:58;9.65;;;1.10;;
74074;SDS011;62428;51.412;5.432;2023-08-21T00:58:24;3.30;;;1.27;;
74074;SDS011;62428;51.412;5.432;2023-08-21T01:00:49;8.03;;;1.73;;
74074;SDS011;62428;51.412;5.432;2023-08-21T01:03:17;5.20;;;1.20;;
74074;SDS011;62428;51.412;5.432;2023-08-21T01:05:42;4.47;;;1.40;;
74074;SDS011;62428;51.412;5.432;2023-08-21T01:08:10;2.87;;;1.27;;
74074;SDS011;62428;51.412;5.432;2023-08-21T01:13:26;5.07;;;1.20;;
74074;SDS011;62428;51.412;5.432;2023-08-21T01:16:01;6.40;;;1.50;;
74074;SDS011;62428;51.412;5.432;2023-08-21T01:18:29;8.63;;;1.60;;
74074;SDS011;62428;51.412;5.432;2023-08-21T01:20:55;5.90;;;1.47;;
74074;SDS011;62428;51.412;5.432;2023-08-21T01:23:32;5.65;;;1.33;;
74074;SDS011;62428;51.412;5.432;2023-08-21T01:26:01;8.20;;;1.30;;
74074;SDS011;62428;51.412;5.432;2023-08-21T01:28:27;4.30;;;1.33;;
74074;SDS011;62428;51.412;5.432;2023-08-21T01:30:57;6.03;;;1.40;;
74074;SDS011;62428;51.412;5.432;2023-08-21T01:33:28;8.60;;;1.55;;
74074;SDS011;62428;51.412;5.432;2023-08-21T01:35:57;3.83;;;1.65;;
74074;SDS011;62428;51.412;5.432;2023-08-21T01:38:25;6.95;;;1.23;;
74074;SDS011;62428;51.412;5.432;2023-08-21T01:40:51;8.03;;;1.40;;
74074;SDS011;62428;51.412;5.432;2023-08-21T01:43:16;4.97;;;1.40;;
74074;SDS011;62428;51.412;5.432;2023-08-21T01:45:41;5.67;;;1.20;;
74074;SDS011;62428;51.412;5.432;2023-08-21T01:48:07;6.95;;;1.17;;
74074;SDS011;62428;51.412;5.432;2023-08-21T01:50:32;5.07;;;1.50;;
74074;SDS011;62428;51.412;5.432;2023-08-21T01:52:58;6.60;;;1.30;;
74074;SDS011;62428;51.412;5.432;2023-08-21T01:55:23;6.67;;;1.20;;
74074;SDS011;62428;51.412;5.432;2023-08-21T01:57:48;4.73;;;1.27;;
74074;SDS011;62428;51.412;5.432;2023-08-21T02:00:14;4.57;;;1.00;;
74074;SDS011;62428;51.412;5.432;2023-08-21T02:02:39;8.40;;;1.10;;
74074;SDS011;62428;51.412;5.432;2023-08-21T02:05:06;5.20;;;1.20;;
74074;SDS011;62428;51.412;5.432;2023-08-21T02:07:31;6.20;;;1.47;;
74074;SDS011;62428;51.412;5.432;2023-08-21T02:09:57;5.90;;;1.27;;
74074;SDS011;62428;51.412;5.432;2023-08-21T02:12:22;5.88;;;1.35;;
74074;SDS011;62428;51.412;5.432;2023-08-21T02:14:47;2.90;;;0.80;;
74074;SDS011;62428;51.412;5.432;2023-08-21T02:17:13;3.80;;;1.10;;
74074;SDS011;62428;51.412;5.432;2023-08-21T02:19:39;3.83;;;1.05;;
74074;SDS011;62428;51.412;5.432;2023-08-21T02:22:04;6.97;;;1.20;;
74074;SDS011;62428;51.412;5.432;2023-08-21T02:24:29;8.37;;;1.20;;
74074;SDS011;62428;51.412;5.432;2023-08-21T02:26:55;4.87;;;1.20;;
74074;SDS011;62428;51.412;5.432;2023-08-21T02:29:20;5.57;;;0.90;;
74074;SDS011;62428;51.412;5.432;2023-08-21T02:31:46;5.68;;;1.10;;
74074;SDS011;62428;51.412;5.432;2023-08-21T02:34:11;5.17;;;1.00;;
74074;SDS011;62428;51.412;5.432;2023-08-21T02:36:37;4.73;;;1.10;;
74074;SDS011;62428;51.412;5.432;2023-08-21T02:39:02;4.23;;;1.03;;
74074;SDS011;62428;51.412;5.432;2023-08-21T02:41:28;6.47;;;1.40;;
74074;SDS011;62428;51.412;5.432;2023-08-21T02:43:54;4.97;;;1.23;;
74074;SDS011;62428;51.412;5.432;2023-08-21T02:46:19;7.83;;;1.53;;
74074;SDS011;62428;51.412;5.432;2023-08-21T02:48:45;3.30;;;1.27;;
74074;SDS011;62428;51.412;5.432;2023-08-21T02:51:10;6.93;;;2.07;;
74074;SDS011;62428;51.412;5.432;2023-08-21T02:53:35;6.63;;;1.83;;
74074;SDS011;62428;51.412;5.432;2023-08-21T02:56:01;10.23;;;2.20;;
74074;SDS011;62428;51.412;5.432;2023-08-21T02:58:26;9.37;;;2.00;;
74074;SDS011;62428;51.412;5.432;2023-08-21T03:00:51;6.17;;;1.80;;
74074;SDS011;62428;51.412;5.432;2023-08-21T03:03:17;5.72;;;1.42;;
74074;SDS011;62428;51.412;5.432;2023-08-21T03:05:42;5.40;;;1.50;;
74074;SDS011;62428;51.412;5.432;2023-08-21T03:08:07;7.80;;;1.70;;
74074;SDS011;62428;51.412;5.432;2023-08-21T03:10:33;7.17;;;1.77;;
74074;SDS011;62428;51.412;5.432;2023-08-21T03:12:58;7.33;;;1.87;;
74074;SDS011;62428;51.412;5.432;2023-08-21T03:15:24;6.88;;;1.80;;
74074;SDS011;62428;51.412;5.432;2023-08-21T03:17:50;6.70;;;1.90;;
74074;SDS011;62428;51.412;5.432;2023-08-21T03:20:15;5.03;;;1.70;;
74074;SDS011;62428;51.412;5.432;2023-08-21T03:22:42;7.57;;;1.25;;
74074;SDS011;62428;51.412;5.432;2023-08-21T03:25:07;5.10;;;1.37;;
74074;SDS011;62428;51.412;5.432;2023-08-21T03:27:33;4.07;;;1.50;;
74074;SDS011;62428;51.412;5.432;2023-08-21T03:29:59;5.83;;;1.40;;
74074;SDS011;62428;51.412;5.432;2023-08-21T03:32:26;5.60;;;1.45;;
74074;SDS011;62428;51.412;5.432;2023-08-21T03:34:51;8.27;;;1.47;;
74074;SDS011;62428;51.412;5.432;2023-08-21T03:37:16;4.90;;;1.73;;
74074;SDS011;62428;51.412;5.432;2023-08-21T03:39:42;6.38;;;1.30;;
74074;SDS011;62428;51.412;5.432;2023-08-21T03:42:08;3.77;;;1.40;;
74074;SDS011;62428;51.412;5.432;2023-08-21T03:44:33;7.10;;;1.60;;
74074;SDS011;62428;51.412;5.432;2023-08-21T03:46:59;5.93;;;1.60;;
74074;SDS011;62428;51.412;5.432;2023-08-21T03:49:24;5.87;;;1.27;;
74074;SDS011;62428;51.412;5.432;2023-08-21T03:51:49;9.87;;;1.60;;
74074;SDS011;62428;51.412;5.432;2023-08-21T03:54:15;6.87;;;1.43;;
74074;SDS011;62428;51.412;5.432;2023-08-21T03:56:40;3.53;;;1.37;;
74074;SDS011;62428;51.412;5.432;2023-08-21T03:59:05;3.80;;;1.43;;
74074;SDS011;62428;51.412;5.432;2023-08-21T04:01:31;7.63;;;1.83;;
74074;SDS011;62428;51.412;5.432;2023-08-21T04:03:56;6.57;;;1.30;;
74074;SDS011;62428;51.412;5.432;2023-08-21T04:06:21;6.77;;;1.40;;
74074;SDS011;62428;51.412;5.432;2023-08-21T04:08:47;6.60;;;1.47;;
74074;SDS011;62428;51.412;5.432;2023-08-21T04:11:12;3.90;;;2.07;;
74074;SDS011;62428;51.412;5.432;2023-08-21T04:13:37;8.40;;;1.93;;
74074;SDS011;62428;51.412;5.432;2023-08-21T04:16:03;7.03;;;1.97;;
74074;SDS011;62428;51.412;5.432;2023-08-21T04:18:28;6.75;;;1.40;;
74074;SDS011;62428;51.412;5.432;2023-08-21T04:20:54;6.17;;;2.17;;
74074;SDS011;62428;51.412;5.432;2023-08-21T04:23:19;9.43;;;2.30;;
74074;SDS011;62428;51.412;5.432;2023-08-21T04:25:44;6.73;;;1.97;;
74074;SDS011;62428;51.412;5.432;2023-08-21T04:28:10;6.07;;;2.57;;
74074;SDS011;62428;51.412;5.432;2023-08-21T04:30:35;6.55;;;2.30;;
74074;SDS011;62428;51.412;5.432;2023-08-21T04:33:00;6.80;;;2.40;;
74074;SDS011;62428;51.412;5.432;2023-08-21T04:35:26;5.57;;;2.57;;
74074;SDS011;62428;51.412;5.432;2023-08-21T04:37:52;7.57;;;2.70;;
74074;SDS011;62428;51.412;5.432;2023-08-21T04:40:17;8.82;;;2.40;;
74074;SDS011;62428;51.412;5.432;2023-08-21T04:42:45;8.97;;;2.83;;
74074;SDS011;62428;51.412;5.432;2023-08-21T04:45:11;9.55;;;2.60;;
74074;SDS011;62428;51.412;5.432;2023-08-21T04:47:36;7.00;;;2.67;;
74074;SDS011;62428;51.412;5.432;2023-08-21T04:50:02;8.20;;;2.40;;
74074;SDS011;62428;51.412;5.432;2023-08-21T04:52:27;6.75;;;2.20;;
74074;SDS011;62428;51.412;5.432;2023-08-21T04:54:53;7.23;;;2.63;;
74074;SDS011;62428;51.412;5.432;2023-08-21T04:57:19;5.30;;;2.13;;
74074;SDS011;62428;51.412;5.432;2023-08-21T04:59:46;7.37;;;2.73;;
74074;SDS011;62428;51.412;5.432;2023-08-21T05:02:11;10.75;;;2.72;;
74074;SDS011;62428;51.412;5.432;2023-08-21T05:04:37;8.57;;;2.47;;
74074;SDS011;62428;51.412;5.432;2023-08-21T05:07:02;10.13;;;3.10;;
74074;SDS011;62428;51.412;5.432;2023-08-21T05:09:28;6.82;;;2.30;;
74074;SDS011;62428;51.412;5.432;2023-08-21T05:11:54;7.63;;;2.70;;
74074;SDS011;62428;51.412;5.432;2023-08-21T05:14:19;8.00;;;2.80;;
74074;SDS011;62428;51.412;5.432;2023-08-21T05:16:45;10.10;;;2.53;;
74074;SDS011;62428;51.412;5.432;2023-08-21T05:19:11;5.80;;;3.03;;
74074;SDS011;62428;51.412;5.432;2023-08-21T05:21:36;10.33;;;2.80;;
74074;SDS011;62428;51.412;5.432;2023-08-21T05:24:01;8.23;;;2.53;;
74074;SDS011;62428;51.412;5.432;2023-08-21T05:26:27;11.45;;;2.75;;
74074;SDS011;62428;51.412;5.432;2023-08-21T05:28:53;7.93;;;2.57;;
74074;SDS011;62428;51.412;5.432;2023-08-21T05:31:18;17.17;;;3.03;;
74074;SDS011;62428;51.412;5.432;2023-08-21T05:33:43;17.03;;;2.90;;
74074;SDS011;62428;51.412;5.432;2023-08-21T05:36:10;10.60;;;3.10;;
74074;SDS011;62428;51.412;5.432;2023-08-21T05:38:35;10.73;;;3.38;;
74074;SDS011;62428;51.412;5.432;2023-08-21T05:41:01;10.23;;;2.90;;
74074;SDS011;62428;51.412;5.432;2023-08-21T05:43:26;10.27;;;3.10;;
74074;SDS011;62428;51.412;5.432;2023-08-21T05:45:51;8.60;;;3.67;;
74074;SDS011;62428;51.412;5.432;2023-08-21T05:48:17;9.20;;;3.20;;
74074;SDS011;62428;51.412;5.432;2023-08-21T05:50:42;7.90;;;3.03;;
74074;SDS011;62428;51.412;5.432;2023-08-21T05:53:08;13.55;;;3.55;;
74074;SDS011;62428;51.412;5.432;2023-08-21T05:55:33;7.37;;;3.13;;
74074;SDS011;62428;51.412;5.432;2023-08-21T05:58:01;10.68;;;3.83;;
74074;SDS011;62428;51.412;5.432;2023-08-21T06:00:27;9.17;;;3.30;;
74074;SDS011;62428;51.412;5.432;2023-08-21T06:02:52;9.97;;;3.53;;
74074;SDS011;62428;51.412;5.432;2023-08-21T06:05:18;10.57;;;3.77;;
74074;SDS011;62428;51.412;5.432;2023-08-21T06:07:43;6.82;;;3.55;;
74074;SDS011;62428;51.412;5.432;2023-08-21T06:10:09;15.30;;;3.70;;
74074;SDS011;62428;51.412;5.432;2023-08-21T06:12:40;10.97;;;3.67;;
74074;SDS011;62428;51.412;5.432;2023-08-21T06:15:06;10.57;;;4.25;;
74074;SDS011;62428;51.412;5.432;2023-08-21T06:17:38;9.85;;;4.00;;
74074;SDS011;62428;51.412;5.432;2023-08-21T06:20:04;15.38;;;3.75;;
74074;SDS011;62428;51.412;5.432;2023-08-21T06:22:31;8.30;;;4.10;;
74074;SDS011;62428;51.412;5.432;2023-08-21T06:24:57;14.37;;;3.77;;
74074;SDS011;62428;51.412;5.432;2023-08-21T06:27:22;12.15;;;3.67;;
74074;SDS011;62428;51.412;5.432;2023-08-21T06:29:48;9.00;;;3.50;;
74074;SDS011;62428;51.412;5.432;2023-08-21T06:32:13;14.40;;;3.60;;
74074;SDS011;62428;51.412;5.432;2023-08-21T06:34:39;13.07;;;3.80;;
74074;SDS011;62428;51.412;5.432;2023-08-21T06:37:04;13.07;;;4.03;;
74074;SDS011;62428;51.412;5.432;2023-08-21T06:39:30;17.13;;;4.87;;
74074;SDS011;62428;51.412;5.432;2023-08-21T06:41:56;11.07;;;4.75;;
74074;SDS011;62428;51.412;5.432;2023-08-21T06:44:21;11.00;;;4.10;;
74074;SDS011;62428;51.412;5.432;2023-08-21T06:46:47;13.73;;;4.63;;
74074;SDS011;62428;51.412;5.432;2023-08-21T06:49:12;11.00;;;4.30;;
74074;SDS011;62428;51.412;5.432;2023-08-21T06:51:38;7.80;;;3.70;;
74074;SDS011;62428;51.412;5.432;2023-08-21T06:54:03;14.30;;;4.60;;
74074;SDS011;62428;51.412;5.432;2023-08-21T06:56:29;11.73;;;4.40;;
74074;SDS011;62428;51.412;5.432;2023-08-21T06:58:54;10.00;;;4.40;;
74074;SDS011;62428;51.412;5.432;2023-08-21T07:01:20;13.02;;;4.30;;
74074;SDS011;62428;51.412;5.432;2023-08-21T07:03:46;10.27;;;3.80;;
74074;SDS011;62428;51.412;5.432;2023-08-21T07:06:11;11.60;;;4.50;;
74074;SDS011;62428;51.412;5.432;2023-08-21T07:08:36;8.73;;;3.67;;
74074;SDS011;62428;51.412;5.432;2023-08-21T07:11:04;11.45;;;3.80;;
74074;SDS011;62428;51.412;5.432;2023-08-21T07:13:29;8.60;;;3.77;;
74074;SDS011;62428;51.412;5.432;2023-08-21T07:15:54;8.83;;;3.53;;
74074;SDS011;62428;51.412;5.432;2023-08-21T07:18:20;6.50;;;2.67;;
74074;SDS011;62428;51.412;5.432;2023-08-21T07:20:45;8.43;;;2.97;;
74074;SDS011;62428;51.412;5.432;2023-08-21T07:23:11;8.80;;;2.90;;
74074;SDS011;62428;51.412;5.432;2023-08-21T07:25:36;7.27;;;2.73;;
74074;SDS011;62428;51.412;5.432;2023-08-21T07:28:02;7.30;;;2.33;;
74074;SDS011;62428;51.412;5.432;2023-08-21T07:30:27;12.68;;;3.08;;
74074;SDS011;62428;51.412;5.432;2023-08-21T07:32:53;10.80;;;2.87;;
74074;SDS011;62428;51.412;5.432;2023-08-21T07:35:18;8.87;;;3.47;;
74074;SDS011;62428;51.412;5.432;2023-08-21T07:37:44;9.63;;;3.38;;
74074;SDS011;62428;51.412;5.432;2023-08-21T07:40:10;10.03;;;3.00;;
74074;SDS011;62428;51.412;5.432;2023-08-21T07:42:36;7.18;;;2.40;;
74074;SDS011;62428;51.412;5.432;2023-08-21T07:45:01;8.23;;;2.10;;
74074;SDS011;62428;51.412;5.432;2023-08-21T07:47:27;5.63;;;1.97;;
74074;SDS011;62428;51.412;5.432;2023-08-21T07:49:53;7.45;;;2.50;;
74074;SDS011;62428;51.412;5.432;2023-08-21T07:52:18;5.90;;;1.73;;
74074;SDS011;62428;51.412;5.432;2023-08-21T07:54:44;5.10;;;1.93;;
74074;SDS011;62428;51.412;5.432;2023-08-21T07:57:09;6.00;;;1.90;;
74074;SDS011;62428;51.412;5.432;2023-08-21T07:59:35;7.13;;;1.70;;
74074;SDS011;62428;51.412;5.432;2023-08-21T08:02:01;5.97;;;1.50;;
74074;SDS011;62428;51.412;5.432;2023-08-21T08:04:27;6.67;;;2.13;;
74074;SDS011;62428;51.412;5.432;2023-08-21T08:06:53;7.07;;;2.00;;
74074;SDS011;62428;51.412;5.432;2023-08-21T08:09:19;6.20;;;1.90;;
74074;SDS011;62428;51.412;5.432;2023-08-21T08:11:44;5.50;;;2.33;;
74074;SDS011;62428;51.412;5.432;2023-08-21T08:14:09;5.18;;;2.00;;
74074;SDS011;62428;51.412;5.432;2023-08-21T08:16:35;5.87;;;1.80;;
74074;SDS011;62428;51.412;5.432;2023-08-21T08:19:00;8.43;;;2.27;;
74074;SDS011;62428;51.412;5.432;2023-08-21T08:21:25;7.67;;;1.60;;
74074;SDS011;62428;51.412;5.432;2023-08-21T08:23:51;7.03;;;1.60;;
74074;SDS011;62428;51.412;5.432;2023-08-21T08:26:16;7.17;;;2.07;;
74074;SDS011;62428;51.412;5.432;2023-08-21T08:28:42;7.40;;;2.10;;
74074;SDS011;62428;51.412;5.432;2023-08-21T08:31:13;5.05;;;1.25;;
74074;SDS011;62428;51.412;5.432;2023-08-21T08:33:39;7.25;;;2.28;;
74074;SDS011;62428;51.412;5.432;2023-08-21T08:36:05;8.27;;;1.80;;
74074;SDS011;62428;51.412;5.432;2023-08-21T08:38:30;5.50;;;1.73;;
74074;SDS011;62428;51.412;5.432;2023-08-21T08:40:55;5.73;;;1.40;;
74074;SDS011;62428;51.412;5.432;2023-08-21T08:43:22;5.55;;;1.33;;
74074;SDS011;62428;51.412;5.432;2023-08-21T08:45:50;2.83;;;1.10;;
74074;SDS011;62428;51.412;5.432;2023-08-21T08:48:17;5.63;;;1.50;;
74074;SDS011;62428;51.412;5.432;2023-08-21T08:50:45;6.40;;;2.10;;
74074;SDS011;62428;51.412;5.432;2023-08-21T08:53:12;6.32;;;1.63;;
74074;SDS011;62428;51.412;5.432;2023-08-21T08:55:38;6.93;;;1.67;;
74074;SDS011;62428;51.412;5.432;2023-08-21T08:58:04;7.10;;;1.97;;
74074;SDS011;62428;51.412;5.432;2023-08-21T09:00:30;6.43;;;1.60;;
74074;SDS011;62428;51.412;5.432;2023-08-21T09:02:56;5.90;;;1.60;;
74074;SDS011;62428;51.412;5.432;2023-08-21T09:05:23;5.35;;;1.65;;
74074;SDS011;62428;51.412;5.432;2023-08-21T09:08:01;4.82;;;1.65;;
74074;SDS011;62428;51.412;5.432;2023-08-21T09:10:29;5.22;;;1.40;;
74074;SDS011;62428;51.412;5.432;2023-08-21T09:12:56;3.97;;;1.50;;
74074;SDS011;62428;51.412;5.432;2023-08-21T09:15:27;7.88;;;1.70;;
74074;SDS011;62428;51.412;5.432;2023-08-21T09:17:54;5.60;;;1.55;;
74074;SDS011;62428;51.412;5.432;2023-08-21T09:20:20;9.03;;;1.73;;
74074;SDS011;62428;51.412;5.432;2023-08-21T09:22:52;4.55;;;1.50;;
74074;SDS011;62428;51.412;5.432;2023-08-21T09:25:20;8.07;;;1.83;;
74074;SDS011;62428;51.412;5.432;2023-08-21T09:27:45;7.22;;;1.70;;
74074;SDS011;62428;51.412;5.432;2023-08-21T09:30:11;6.53;;;1.80;;
74074;SDS011;62428;51.412;5.432;2023-08-21T09:32:54;4.73;;;1.23;;
74074;SDS011;62428;51.412;5.432;2023-08-21T09:35:21;5.00;;;1.35;;
74074;SDS011;62428;51.412;5.432;2023-08-21T09:37:46;5.00;;;1.63;;
74074;SDS011;62428;51.412;5.432;2023-08-21T09:40:12;7.27;;;1.50;;
74074;SDS011;62428;51.412;5.432;2023-08-21T09:42:39;7.07;;;1.77;;
74074;SDS011;62428;51.412;5.432;2023-08-21T09:45:04;8.67;;;1.43;;
74074;SDS011;62428;51.412;5.432;2023-08-21T09:47:30;9.02;;;1.50;;
74074;SDS011;62428;51.412;5.432;2023-08-21T09:49:56;3.45;;;1.30;;
74074;SDS011;62428;51.412;5.432;2023-08-21T09:52:23;7.72;;;1.88;;
74074;SDS011;62428;51.412;5.432;2023-08-21T09:54:49;7.03;;;1.73;;
74074;SDS011;62428;51.412;5.432;2023-08-21T09:57:18;7.72;;;1.60;;
74074;SDS011;62428;51.412;5.432;2023-08-21T09:59:46;4.78;;;1.33;;
74074;SDS011;62428;51.412;5.432;2023-08-21T10:02:14;7.50;;;1.50;;
74074;SDS011;62428;51.412;5.432;2023-08-21T10:04:40;6.67;;;1.40;;
74074;SDS011;62428;51.412;5.432;2023-08-21T10:07:10;8.43;;;1.77;;
74074;SDS011;62428;51.412;5.432;2023-08-21T10:09:37;10.27;;;1.98;;
74074;SDS011;62428;51.412;5.432;2023-08-21T10:12:05;7.88;;;1.38;;
74074;SDS011;62428;51.412;5.432;2023-08-21T10:14:33;3.78;;;1.60;;
74074;SDS011;62428;51.412;5.432;2023-08-21T10:17:00;6.97;;;1.80;;
74074;SDS011;62428;51.412;5.432;2023-08-21T10:19:30;9.20;;;1.77;;
74074;SDS011;62428;51.412;5.432;2023-08-21T10:21:56;3.42;;;1.38;;
74074;SDS011;62428;51.412;5.432;2023-08-21T10:24:34;6.05;;;2.00;;
74074;SDS011;62428;51.412;5.432;2023-08-21T10:27:01;9.47;;;1.67;;
74074;SDS011;62428;51.412;5.432;2023-08-21T10:29:27;5.45;;;1.35;;
74074;SDS011;62428;51.412;5.432;2023-08-21T10:32:03;4.40;;;1.40;;
74074;SDS011;62428;51.412;5.432;2023-08-21T10:34:35;7.20;;;1.80;;
74074;SDS011;62428;51.412;5.432;2023-08-21T10:37:09;5.63;;;1.77;;
74074;SDS011;62428;51.412;5.432;2023-08-21T10:39:37;3.70;;;1.38;;
74074;SDS011;62428;51.412;5.432;2023-08-21T10:42:11;5.30;;;1.70;;
74074;SDS011;62428;51.412;5.432;2023-08-21T10:47:26;4.57;;;1.58;;
74074;SDS011;62428;51.412;5.432;2023-08-21T10:50:03;4.35;;;1.60;;
74074;SDS011;62428;51.412;5.432;2023-08-21T10:52:34;5.28;;;1.75;;
74074;SDS011;62428;51.412;5.432;2023-08-21T10:55:02;5.28;;;1.80;;
74074;SDS011;62428;51.412;5.432;2023-08-21T10:57:31;5.53;;;1.57;;
74074;SDS011;62428;51.412;5.432;2023-08-21T11:00:02;4.45;;;1.65;;
74074;SDS011;62428;51.412;5.432;2023-08-21T11:02:30;4.35;;;1.75;;
74074;SDS011;62428;51.412;5.432;2023-08-21T11:04:57;5.07;;;2.22;;
74074;SDS011;62428;51.412;5.432;2023-08-21T11:07:24;6.85;;;2.60;;
74074;SDS011;62428;51.412;5.432;2023-08-21T11:09:50;6.40;;;2.00;;
74074;SDS011;62428;51.412;5.432;2023-08-21T11:12:17;3.38;;;1.88;;
74074;SDS011;62428;51.412;5.432;2023-08-21T11:14:44;4.22;;;1.60;;
74074;SDS011;62428;51.412;5.432;2023-08-21T11:17:10;3.00;;;1.65;;
74074;SDS011;62428;51.412;5.432;2023-08-21T11:19:36;4.85;;;1.60;;
74074;SDS011;62428;51.412;5.432;2023-08-21T11:22:03;5.63;;;1.80;;
74074;SDS011;62428;51.412;5.432;2023-08-21T11:24:39;5.72;;;1.80;;
74074;SDS011;62428;51.412;5.432;2023-08-21T11:27:05;5.60;;;1.85;;
74074;SDS011;62428;51.412;5.432;2023-08-21T11:29:37;7.30;;;1.73;;
74074;SDS011;62428;51.412;5.432;2023-08-21T11:32:13;5.95;;;1.50;;
74074;SDS011;62428;51.412;5.432;2023-08-21T11:34:40;5.68;;;1.50;;
74074;SDS011;62428;51.412;5.432;2023-08-21T11:37:07;5.78;;;1.55;;
74074;SDS011;62428;51.412;5.432;2023-08-21T11:39:43;3.67;;;1.60;;
74074;SDS011;62428;51.412;5.432;2023-08-21T11:42:10;7.93;;;2.08;;
74074;SDS011;62428;51.412;5.432;2023-08-21T11:44:44;4.72;;;1.75;;
74074;SDS011;62428;51.412;5.432;2023-08-21T11:47:16;6.45;;;1.70;;
74074;SDS011;62428;51.412;5.432;2023-08-21T11:49:42;4.70;;;1.50;;
74074;SDS011;62428;51.412;5.432;2023-08-21T11:52:10;5.85;;;1.88;;
74074;SDS011;62428;51.412;5.432;2023-08-21T11:54:36;10.20;;;1.63;;
74074;SDS011;62428;51.412;5.432;2023-08-21T11:57:03;4.72;;;1.80;;
74074;SDS011;62428;51.412;5.432;2023-08-21T11:59:32;4.68;;;1.77;;
74074;SDS011;62428;51.412;5.432;2023-08-21T12:01:57;5.53;;;1.63;;
74074;SDS011;62428;51.412;5.432;2023-08-21T12:04:23;8.80;;;2.00;;
74074;SDS011;62428;51.412;5.432;2023-08-21T12:06:49;5.25;;;1.77;;
74074;SDS011;62428;51.412;5.432;2023-08-21T12:09:14;3.63;;;1.70;;
74074;SDS011;62428;51.412;5.432;2023-08-21T12:11:39;5.30;;;2.00;;
74074;SDS011;62428;51.412;5.432;2023-08-21T12:14:05;4.27;;;2.17;;
74074;SDS011;62428;51.412;5.432;2023-08-21T12:16:30;4.73;;;1.90;;
74074;SDS011;62428;51.412;5.432;2023-08-21T12:18:56;6.70;;;2.00;;
74074;SDS011;62428;51.412;5.432;2023-08-21T12:21:27;3.72;;;1.83;;
74074;SDS011;62428;51.412;5.432;2023-08-21T12:23:52;6.28;;;2.00;;
74074;SDS011;62428;51.412;5.432;2023-08-21T12:26:18;4.73;;;1.90;;
74074;SDS011;62428;51.412;5.432;2023-08-21T12:28:47;5.70;;;1.77;;
74074;SDS011;62428;51.412;5.432;2023-08-21T12:31:13;5.15;;;1.83;;
74074;SDS011;62428;51.412;5.432;2023-08-21T12:33:38;5.03;;;1.77;;
74074;SDS011;62428;51.412;5.432;2023-08-21T12:36:04;6.07;;;1.80;;
74074;SDS011;62428;51.412;5.432;2023-08-21T12:38:29;4.63;;;2.00;;
74074;SDS011;62428;51.412;5.432;2023-08-21T12:40:55;8.18;;;2.05;;
74074;SDS011;62428;51.412;5.432;2023-08-21T12:43:20;4.80;;;1.90;;
74074;SDS011;62428;51.412;5.432;2023-08-21T12:45:46;5.37;;;1.87;;
74074;SDS011;62428;51.412;5.432;2023-08-21T12:48:12;7.32;;;1.60;;
74074;SDS011;62428;51.412;5.432;2023-08-21T12:50:37;4.57;;;2.10;;
74074;SDS011;62428;51.412;5.432;2023-08-21T12:53:03;3.92;;;1.50;;
74074;SDS011;62428;51.412;5.432;2023-08-21T12:55:28;4.50;;;1.83;;
74074;SDS011;62428;51.412;5.432;2023-08-21T12:57:55;7.07;;;1.73;;
74074;SDS011;62428;51.412;5.432;2023-08-21T13:00:21;4.40;;;1.40;;
74074;SDS011;62428;51.412;5.432;2023-08-21T13:02:46;4.90;;;1.87;;
74074;SDS011;62428;51.412;5.432;2023-08-21T13:05:11;4.60;;;1.90;;
74074;SDS011;62428;51.412;5.432;2023-08-21T13:07:37;3.37;;;1.50;;
74074;SDS011;62428;51.412;5.432;2023-08-21T13:10:02;6.35;;;1.60;;
74074;SDS011;62428;51.412;5.432;2023-08-21T13:12:28;3.53;;;1.50;;
74074;SDS011;62428;51.412;5.432;2023-08-21T13:14:53;5.17;;;1.67;;
74074;SDS011;62428;51.412;5.432;2023-08-21T13:17:19;5.33;;;1.77;;
74074;SDS011;62428;51.412;5.432;2023-08-21T13:19:44;6.15;;;1.70;;
74074;SDS011;62428;51.412;5.432;2023-08-21T13:22:10;5.27;;;2.30;;
74074;SDS011;62428;51.412;5.432;2023-08-21T13:24:35;7.43;;;2.00;;
74074;SDS011;62428;51.412;5.432;2023-08-21T13:27:01;6.82;;;1.92;;
74074;SDS011;62428;51.412;5.432;2023-08-21T13:29:26;4.17;;;1.57;;
74074;SDS011;62428;51.412;5.432;2023-08-21T13:31:51;3.07;;;1.67;;
74074;SDS011;62428;51.412;5.432;2023-08-21T13:34:17;3.30;;;1.83;;
74074;SDS011;62428;51.412;5.432;2023-08-21T13:36:42;6.47;;;1.73;;
74074;SDS011;62428;51.412;5.432;2023-08-21T13:39:08;5.20;;;1.85;;
74074;SDS011;62428;51.412;5.432;2023-08-21T13:41:35;3.75;;;1.33;;
74074;SDS011;62428;51.412;5.432;2023-08-21T13:44:01;3.63;;;2.10;;
74074;SDS011;62428;51.412;5.432;2023-08-21T13:46:26;3.78;;;1.80;;
74074;SDS011;62428;51.412;5.432;2023-08-21T13:48:52;5.03;;;1.43;;
74074;SDS011;62428;51.412;5.432;2023-08-21T13:51:17;3.30;;;2.00;;
74074;SDS011;62428;51.412;5.432;2023-08-21T13:53:43;3.77;;;1.50;;
74074;SDS011;62428;51.412;5.432;2023-08-21T13:56:08;7.00;;;2.00;;
74074;SDS011;62428;51.412;5.432;2023-08-21T13:58:33;3.20;;;2.22;;
74074;SDS011;62428;51.412;5.432;2023-08-21T14:00:59;5.17;;;1.70;;
74074;SDS011;62428;51.412;5.432;2023-08-21T14:03:24;4.27;;;2.17;;
74074;SDS011;62428;51.412;5.432;2023-08-21T14:05:50;4.17;;;2.00;;
74074;SDS011;62428;51.412;5.432;2023-08-21T14:08:15;2.80;;;1.57;;
74074;SDS011;62428;51.412;5.432;2023-08-21T14:10:40;4.28;;;2.00;;
74074;SDS011;62428;51.412;5.432;2023-08-21T14:13:06;3.90;;;1.90;;
74074;SDS011;62428;51.412;5.432;2023-08-21T14:15:33;5.43;;;2.03;;
74074;SDS011;62428;51.412;5.432;2023-08-21T14:17:59;2.67;;;1.60;;
74074;SDS011;62428;51.412;5.432;2023-08-21T14:20:24;5.07;;;2.03;;
74074;SDS011;62428;51.412;5.432;2023-08-21T14:22:50;3.37;;;1.40;;
74074;SDS011;62428;51.412;5.432;2023-08-21T14:25:15;2.63;;;1.60;;
74074;SDS011;62428;51.412;5.432;2023-08-21T14:27:40;4.47;;;1.60;;
74074;SDS011;62428;51.412;5.432;2023-08-21T14:30:06;4.20;;;1.88;;
74074;SDS011;62428;51.412;5.432;2023-08-21T14:32:32;5.50;;;1.77;;
74074;SDS011;62428;51.412;5.432;2023-08-21T14:34:58;5.17;;;1.70;;
74074;SDS011;62428;51.412;5.432;2023-08-21T14:37:23;4.17;;;2.00;;
74074;SDS011;62428;51.412;5.432;2023-08-21T14:39:49;4.27;;;1.80;;
74074;SDS011;62428;51.412;5.432;2023-08-21T14:42:14;5.10;;;2.03;;
74074;SDS011;62428;51.412;5.432;2023-08-21T14:44:40;4.57;;;1.90;;